Lyerly, Georgia
Current Conditions -  °F | °C
As of 3:53 AM on Monday 24 Nov 2014 (Local Time) from KRMG Reporting Station
Overcast Overcast  
Wind Chill: 60°   Ceiling: 2900
Heat Index: 60°   Visibility: 10mi
Dew Point: 56°   Wind: 9mph
Humidity: 86%   Direction: 180°S
Pressure: 29.7"   Gusts: NA
Location:  34.4°N, 85.4°W
Report Text: KRMG 240853Z AUTO 18008KT 10SM BKN029 OVC038 16/13 A2970 RMK AO2 SLP051 T01560133 51008 $
Loading
Personal Weather Stations






























Interactive Weather Map New forecast layout! Learn more

10-Day Weather Forecast

Advertisements
Track Severe Weather on mobile